Aérodrome :
LOGIN :

S'inscrire | Disclaimer

   EN    FR    IT 

 










Légende :    VFR   VFR Marginal   IFR   IFR Intensif   IFR Très Intensif
Visi : 
Plafond : 
>= 8 km
>= 3000ft
5 à 8 km
1000 à 3000 ft
1500m à 5 km
500 à 1000 ft
800 à 1500m
200 à 500 ft
< 800m
< 200 ft
Symboles :   Orages  Brouillard  Fortes neiges  Fortes précipitations  Vent > 20 kt
SIGMETs :   Divers  Orages  Givrage  Turbulence  Onde Orograph.  Cendres Volcan.






- Altitude de l'aérodrome : 239 ft
- Code IATA : VRN


LIPX - Villafranca Int. Verona

DERNIER METAR :
  • 291220Z 15008KT 9999 -RA BKN070 16/09 Q1013

METARs EXPIRÉS :
  • 291150Z 09003KT 050V130 9999 BKN080 17/09 Q1014
  • 291120Z 08004KT 050V110 9999 SCT070 16/09 Q1014
  • 291050Z 10005KT 070V130 9999 SCT080 16/09 Q1015
  • 291020Z 08005KT 050V120 9999 SCT080 16/09 Q1015
  • 290950Z 10005KT 060V130 9999 SCT090 15/09 Q1015
  • 290920Z 10004KT 9999 SCT070 15/09 Q1015
  • 290850Z 08006KT 9999 FEW040 SCT070 14/08 Q1015
  • 290820Z 07008KT 9999 SCT060 14/08 Q1015
  • 290750Z 09006KT 9999 FEW040 SCT070 14/08 Q1016

TAF TAF LIPX
Valide du 29 à 12h jusqu'au 01 à 12h UTC


291100Z 2912/0112 12010KT 9999 SCT080
BECMG 2918/2920 VRB05KT 4000 RA
BECMG 0104/0106 06010KT



MET'MAP, la Météo Aéronautique d'un coup d'oeil ! - Copyright ORBIFLY Décembre 2007 - Disclaimer

ORBIFLY MET'MAP TEAM :

Programmation & Développement : Alexandra Zaïnal
Sur une idée originale de : Baudouin d'Aumeries
Soutien technique & logistique : Manuel Goepfert
Assistance : Marc-Olivier Méhu




SOURCES & CREDITS :

   NOAA